Time;durP1;ratioP1;P1;durP2;ratioP2;P2;SDS_P1;SDS_P2;PMS_P1;PMS_P2;Temp;Humidity;BMP_temperature;BMP_pressure;BME280_temperature;BME280_humidity;BME280_pressure;Samples;Min_cycle;Max_cycle;Signal;HPM_P1;HPM_P2
2022/12/18 00:00:43;;;;;;;107.63;45.63;;;-3273.80;96.20;;;;;;5040077;28;20033;-75
2022/12/18 00:03:09;;;;;;;122.38;53.88;;;-3273.90;96.20;;;;;;5073472;28;20393;-76
2022/12/18 00:05:36;;;;;;;82.28;35.13;;;-3273.80;96.30;;;;;;5073270;28;20032;-76
2022/12/18 00:08:02;;;;;;;105.53;43.63;;;-3273.80;96.30;;;;;;5072921;28;20110;-75
2022/12/18 00:10:28;;;;;;;105.93;45.15;;;-3273.80;96.40;;;;;;5056570;28;20049;-76
2022/12/18 00:12:54;;;;;;;113.13;49.05;;;-3273.70;96.30;;;;;;5072999;28;20089;-75
2022/12/18 00:15:20;;;;;;;95.55;41.25;;;-3273.70;96.40;;;;;;5073066;28;20052;-75
2022/12/18 00:17:45;;;;;;;101.65;43.95;;;-3273.80;96.30;;;;;;5056455;28;20033;-76
2022/12/18 00:20:11;;;;;;;93.03;40.85;;;-3273.70;96.20;;;;;;5073011;28;20048;-76
2022/12/18 00:22:37;;;;;;;104.45;45.17;;;-3273.70;96.20;;;;;;5072788;28;20044;-76
2022/12/18 00:25:03;;;;;;;112.15;46.60;;;-3273.70;96.20;;;;;;5039682;28;20033;-74
2022/12/18 00:27:28;;;;;;;109.82;45.75;;;-3273.70;96.30;;;;;;5072863;28;20048;-75
2022/12/18 00:29:54;;;;;;;125.80;50.40;;;-3273.70;96.20;;;;;;5072699;28;20161;-76
2022/12/18 00:32:20;;;;;;;119.28;45.75;;;-3273.70;96.30;;;;;;5039492;28;20400;-74
2022/12/18 00:34:45;;;;;;;141.18;53.33;;;-3273.70;96.30;;;;;;5072589;28;20447;-76
2022/12/18 00:37:11;;;;;;;132.75;50.97;;;-3273.70;96.20;;;;;;5072582;28;20450;-74
2022/12/18 00:39:36;;;;;;;124.07;49.92;;;-3273.60;96.20;;;;;;5072619;28;20116;-76
2022/12/18 00:44:46;;;;;;;114.00;49.53;;;-3273.60;96.30;;;;;;5058444;28;20053;-76
2022/12/18 00:47:12;;;;;;;123.43;49.80;;;-3273.60;96.20;;;;;;5072400;28;20048;-75
2022/12/18 00:49:37;;;;;;;105.43;42.72;;;-3273.70;96.30;;;;;;5072296;28;20040;-75
2022/12/18 00:52:03;;;;;;;104.15;42.97;;;-3273.70;96.20;;;;;;5072256;28;20040;-77
2022/12/18 00:54:29;;;;;;;103.07;43.35;;;-3273.60;96.20;;;;;;5072182;28;20444;-75
2022/12/18 00:56:55;;;;;;;125.50;54.92;;;-3273.60;96.10;;;;;;5055062;28;20447;-75
2022/12/18 00:59:20;;;;;;;141.00;63.35;;;-3273.60;96.10;;;;;;5072205;28;20044;-76
2022/12/18 01:01:47;;;;;;;97.45;42.20;;;-3273.60;96.20;;;;;;5038895;28;20047;-77
2022/12/18 01:04:12;;;;;;;95.28;39.97;;;-3273.60;96.30;;;;;;5072399;28;20044;-77
2022/12/18 01:06:38;;;;;;;91.70;38.17;;;-3273.60;96.30;;;;;;5055367;28;20432;-78
2022/12/18 01:09:04;;;;;;;103.82;39.72;;;-3273.60;96.40;;;;;;5072017;28;20135;-76
2022/12/18 01:11:31;;;;;;;102.75;43.88;;;-3273.60;96.30;;;;;;5072224;28;20044;-76
2022/12/18 01:13:57;;;;;;;113.53;45.75;;;-3273.60;96.30;;;;;;5071870;28;20049;-76
2022/12/18 01:16:23;;;;;;;100.65;38.88;;;-3273.60;96.30;;;;;;5055305;28;20123;-76
2022/12/18 01:18:53;;;;;;;95.20;39.55;;;-3273.60;96.20;;;;;;5071970;28;20040;-77
2022/12/18 01:21:18;;;;;;;95.18;39.28;;;-3273.60;96.20;;;;;;5072135;28;20071;-76
2022/12/18 01:23:44;;;;;;;94.88;36.25;;;-3273.50;96.20;;;;;;5055542;28;20556;-77
2022/12/18 01:26:13;;;;;;;90.85;38.30;;;-3273.50;96.10;;;;;;5071865;28;20060;-78
2022/12/18 01:28:39;;;;;;;96.95;38.90;;;-3273.50;96.20;;;;;;5071829;28;20036;-77
2022/12/18 01:31:27;;;;;;;90.00;38.95;;;-3273.50;96.30;;;;;;5071706;28;20032;-77
2022/12/18 01:33:53;;;;;;;92.43;38.25;;;-3273.50;96.30;;;;;;5071701;28;20044;-77
2022/12/18 01:36:25;;;;;;;96.43;39.90;;;-3273.50;96.30;;;;;;5055124;28;20099;-76
2022/12/18 01:38:51;;;;;;;92.07;40.10;;;-3273.50;96.30;;;;;;5055134;28;20044;-78
2022/12/18 01:41:20;;;;;;;96.03;38.55;;;-3273.50;96.20;;;;;;5071938;28;20102;-76
2022/12/18 01:43:48;;;;;;;97.82;38.47;;;-3273.40;96.00;;;;;;5071941;28;20544;-76
2022/12/18 01:46:15;;;;;;;88.07;37.03;;;-3273.40;96.10;;;;;;5071701;28;20048;-78
2022/12/18 01:48:41;;;;;;;85.50;37.22;;;-3273.40;96.10;;;;;;5055347;28;20377;-77
2022/12/18 01:51:10;;;;;;;87.35;35.47;;;-3273.50;96.10;;;;;;5055138;28;20484;-77
2022/12/18 01:53:37;;;;;;;85.95;36.15;;;-3273.50;96.10;;;;;;5071669;28;20117;-78
2022/12/18 01:56:03;;;;;;;90.22;36.45;;;-3273.50;96.10;;;;;;5054904;28;20040;-77
2022/12/18 01:58:59;;;;;;;96.38;36.75;;;-3273.50;96.00;;;;;;5071661;28;20091;-77
2022/12/18 02:01:26;;;;;;;86.78;37.92;;;-3273.50;96.10;;;;;;5071813;28;20392;-75
2022/12/18 02:03:52;;;;;;;92.78;38.05;;;-3273.50;96.00;;;;;;5071535;28;20052;-77
2022/12/18 02:06:34;;;;;;;90.75;37.92;;;-3273.50;96.00;;;;;;5055087;28;20075;-76
2022/12/18 02:09:14;;;;;;;92.32;35.92;;;-3273.50;96.00;;;;;;5057464;28;20049;-76
2022/12/18 02:12:08;;;;;;;90.50;36.53;;;-3273.40;95.90;;;;;;5075568;28;20134;-76
2022/12/18 02:15:02;;;;;;;100.10;39.47;;;-3273.40;95.90;;;;;;5058794;28;20044;-77
2022/12/18 02:17:47;;;;;;;83.67;35.43;;;-3273.40;95.90;;;;;;5075734;28;20082;-77
2022/12/18 02:20:34;;;;;;;97.07;34.83;;;-3273.40;95.90;;;;;;5058729;28;20094;-75
2022/12/18 02:23:24;;;;;;;88.60;36.53;;;-3273.40;95.80;;;;;;5075543;28;20380;-77
2022/12/18 02:26:27;;;;;;;94.78;36.83;;;-3273.30;95.70;;;;;;5058760;28;20041;-76
2022/12/18 02:29:08;;;;;;;96.15;36.97;;;-3273.30;95.80;;;;;;5067495;28;20052;-75
2022/12/18 02:31:45;;;;;;;90.82;36.42;;;-3273.30;95.80;;;;;;5075026;28;20051;-77
2022/12/18 02:34:12;;;;;;;96.00;39.03;;;-3273.30;95.90;;;;;;5075054;28;20087;-76
2022/12/18 02:36:41;;;;;;;90.28;36.50;;;-3273.20;95.80;;;;;;5075153;28;20044;-76
2022/12/18 02:39:10;;;;;;;85.72;36.78;;;-3273.20;95.80;;;;;;5074941;28;20099;-76
2022/12/18 02:41:36;;;;;;;95.07;36.67;;;-3273.20;95.80;;;;;;5074917;28;20123;-76
2022/12/18 02:44:08;;;;;;;95.88;37.80;;;-3273.10;95.70;;;;;;5075144;28;20123;-76
2022/12/18 02:46:44;;;;;;;87.50;36.33;;;-3273.10;95.60;;;;;;5074908;28;20049;-77
2022/12/18 02:49:51;;;;;;;80.78;34.45;;;-3273.10;95.60;;;;;;5075089;28;20466;-75
2022/12/18 02:52:52;;;;;;;83.53;34.03;;;-3273.10;95.70;;;;;;5044593;28;20049;-75
2022/12/18 02:55:36;;;;;;;88.18;37.15;;;-3273.00;95.60;;;;;;5066540;28;20052;-75
2022/12/18 02:58:12;;;;;;;83.05;34.50;;;-3273.00;95.60;;;;;;5074902;28;20392;-74
2022/12/18 03:00:58;;;;;;;82.78;34.20;;;-3272.90;95.60;;;;;;5074539;28;20051;-74
2022/12/18 03:03:34;;;;;;;78.78;34.35;;;-3272.90;95.40;;;;;;5074464;28;20044;-72
2022/12/18 03:06:10;;;;;;;81.72;33.92;;;-3272.80;95.40;;;;;;5074302;28;20049;-72
2022/12/18 03:08:43;;;;;;;85.30;34.10;;;-3272.80;95.40;;;;;;5074340;28;20048;-73
2022/12/18 03:11:11;;;;;;;83.10;33.28;;;-3272.80;95.40;;;;;;5074192;28;20053;-74
2022/12/18 03:13:50;;;;;;;84.55;36.17;;;-3272.70;95.30;;;;;;5057510;28;20052;-75
2022/12/18 03:16:28;;;;;;;85.93;34.30;;;-3272.70;95.20;;;;;;5074322;28;20036;-72
2022/12/18 03:19:10;;;;;;;79.55;33.63;;;-3272.70;95.30;;;;;;5073681;28;20041;-74
2022/12/18 03:21:44;;;;;;;80.95;33.30;;;-3272.60;95.10;;;;;;5073996;28;20038;-75
2022/12/18 03:24:11;;;;;;;80.63;32.95;;;-3272.60;95.30;;;;;;5074374;28;20388;-75
2022/12/18 03:26:42;;;;;;;84.18;34.63;;;-3272.60;95.30;;;;;;5074019;28;20087;-74
2022/12/18 03:29:14;;;;;;;87.20;33.83;;;-3272.60;95.30;;;;;;5073969;28;20040;-73
2022/12/18 03:31:42;;;;;;;84.43;34.25;;;-3272.60;95.10;;;;;;5073882;28;20044;-74
2022/12/18 03:34:19;;;;;;;90.07;37.00;;;-3272.50;95.20;;;;;;5057290;28;20404;-73
2022/12/18 03:36:45;;;;;;;93.95;36.38;;;-3272.50;95.30;;;;;;5073899;28;20048;-75
2022/12/18 03:39:11;;;;;;;94.05;38.05;;;-3272.50;95.50;;;;;;5073845;28;20037;-74
2022/12/18 03:42:21;;;;;;;89.30;36.03;;;-3272.50;95.50;;;;;;5073714;28;20037;-74
2022/12/18 03:45:09;;;;;;;92.38;37.15;;;-3272.50;95.60;;;;;;5073662;28;20036;-74
2022/12/18 03:47:54;;;;;;;90.32;36.35;;;-3272.50;95.60;;;;;;5073921;28;20486;-74
2022/12/18 03:50:26;;;;;;;88.72;35.90;;;-3272.60;95.60;;;;;;5073616;28;20083;-73
2022/12/18 03:53:17;;;;;;;90.82;38.70;;;-3272.60;95.60;;;;;;5073490;28;20047;-73
2022/12/18 03:55:45;;;;;;;94.25;36.78;;;-3272.50;95.50;;;;;;5056743;28;20040;-75
2022/12/18 03:58:15;;;;;;;83.75;36.95;;;-3272.50;95.50;;;;;;5073641;28;20359;-73
2022/12/18 04:00:42;;;;;;;88.78;34.95;;;-3272.50;95.50;;;;;;5073446;28;20496;-75
2022/12/18 04:03:10;;;;;;;79.78;34.30;;;-3272.50;95.40;;;;;;5073303;28;20048;-73
2022/12/18 04:05:37;;;;;;;92.53;38.13;;;-3272.50;95.40;;;;;;5073175;28;20055;-74
2022/12/18 04:08:03;;;;;;;92.80;39.15;;;-3272.40;95.40;;;;;;5056372;28;20082;-76
2022/12/18 04:10:29;;;;;;;93.18;36.35;;;-3272.40;95.50;;;;;;5056470;28;20506;-73
2022/12/18 04:12:56;;;;;;;92.85;40.65;;;-3272.40;95.40;;;;;;5056788;28;20032;-75
2022/12/18 04:15:23;;;;;;;87.70;37.03;;;-3272.40;95.40;;;;;;5073065;28;20127;-74
2022/12/18 04:17:49;;;;;;;88.57;36.10;;;-3272.40;95.40;;;;;;5072975;28;20044;-72
2022/12/18 04:20:16;;;;;;;93.82;36.22;;;-3272.40;95.40;;;;;;5072884;28;20040;-74
2022/12/18 04:22:42;;;;;;;96.60;38.42;;;-3272.40;95.30;;;;;;5073038;28;20083;-74
2022/12/18 04:25:08;;;;;;;95.28;37.60;;;-3272.30;95.20;;;;;;5056253;28;20044;-72
2022/12/18 04:27:34;;;;;;;87.97;38.38;;;-3272.30;95.20;;;;;;5072797;28;20050;-73
2022/12/18 04:30:00;;;;;;;89.47;36.42;;;-3272.30;95.10;;;;;;5072422;28;20041;-74
2022/12/18 04:32:26;;;;;;;81.20;36.22;;;-3272.30;95.00;;;;;;5072020;28;20040;-75
2022/12/18 04:34:52;;;;;;;92.03;37.20;;;-3272.20;95.00;;;;;;5072582;28;20048;-74
2022/12/18 04:37:17;;;;;;;86.53;38.80;;;-3272.20;94.90;;;;;;5056094;28;20126;-72
2022/12/18 04:39:43;;;;;;;87.20;37.15;;;-3272.20;94.90;;;;;;5072835;28;20032;-74
2022/12/18 04:42:09;;;;;;;85.95;36.85;;;-3272.10;94.80;;;;;;5055760;28;20450;-73
2022/12/18 04:44:35;;;;;;;87.40;37.45;;;-3272.10;94.80;;;;;;5072464;28;20044;-74
2022/12/18 04:47:01;;;;;;;78.97;34.28;;;-3272.10;94.80;;;;;;5072701;28;20040;-74
2022/12/18 04:49:27;;;;;;;81.70;35.05;;;-3272.10;94.70;;;;;;5072378;28;20131;-74
2022/12/18 04:51:52;;;;;;;84.72;35.30;;;-3272.00;94.60;;;;;;5055874;28;20036;-73
2022/12/18 04:54:20;;;;;;;91.05;37.83;;;-3272.00;94.40;;;;;;5055714;28;20542;-74
2022/12/18 04:56:45;;;;;;;80.38;34.03;;;-3272.00;94.50;;;;;;5072199;28;20050;-74
2022/12/18 04:59:11;;;;;;;81.18;36.08;;;-3272.00;94.50;;;;;;5072200;28;20119;-73
2022/12/18 05:01:37;;;;;;;78.80;37.28;;;-3272.00;94.50;;;;;;5072303;28;20086;-74
2022/12/18 05:04:03;;;;;;;80.57;35.00;;;-3272.00;94.50;;;;;;5055453;28;20040;-73
2022/12/18 05:06:28;;;;;;;83.57;36.13;;;-3271.90;94.50;;;;;;5055248;28;20052;-74
2022/12/18 05:08:54;;;;;;;81.22;32.90;;;-3272.00;94.50;;;;;;5072001;28;20102;-74
2022/12/18 05:11:20;;;;;;;77.30;33.40;;;-3272.00;94.40;;;;;;5071964;28;20189;-75
2022/12/18 05:13:46;;;;;;;78.97;35.72;;;-3271.90;94.40;;;;;;5055179;28;20459;-74
2022/12/18 05:16:12;;;;;;;77.20;32.80;;;-3271.90;94.40;;;;;;5055602;28;20044;-74
2022/12/18 05:18:38;;;;;;;77.88;33.17;;;-3271.90;94.20;;;;;;5071887;28;20128;-73
2022/12/18 05:21:04;;;;;;;73.95;33.53;;;-3271.80;94.10;;;;;;5071880;28;20068;-74
2022/12/18 05:23:30;;;;;;;73.10;35.22;;;-3271.80;94.10;;;;;;5022464;28;20033;-73
2022/12/18 05:25:58;;;;;;;80.75;32.95;;;-3271.80;94.10;;;;;;5055106;28;20079;-74
2022/12/18 05:28:25;;;;;;;73.55;32.25;;;-3271.70;94.00;;;;;;5055417;28;20051;-75
2022/12/18 05:30:55;;;;;;;71.30;32.35;;;-3271.70;93.90;;;;;;5072042;28;20071;-74
2022/12/18 05:33:22;;;;;;;78.80;32.45;;;-3271.60;93.90;;;;;;5055184;28;20040;-74
2022/12/18 05:35:56;;;;;;;73.85;33.20;;;-3271.70;94.00;;;;;;5054965;28;20484;-72
2022/12/18 05:38:23;;;;;;;74.63;33.20;;;-3271.60;94.00;;;;;;5071982;28;20078;-74
2022/12/18 05:40:50;;;;;;;77.28;33.90;;;-3271.60;94.00;;;;;;5071899;28;20110;-72
2022/12/18 05:43:16;;;;;;;77.28;33.22;;;-3271.60;94.00;;;;;;5071336;28;20043;-73
2022/12/18 05:45:42;;;;;;;73.97;33.58;;;-3271.70;94.00;;;;;;5071543;28;20082;-73
2022/12/18 05:48:09;;;;;;;73.53;32.10;;;-3271.70;94.00;;;;;;5054955;28;20123;-74
2022/12/18 05:50:39;;;;;;;70.13;30.25;;;-3271.60;93.80;;;;;;5071862;28;20106;-75
2022/12/18 05:53:06;;;;;;;65.30;32.92;;;-3271.60;93.80;;;;;;5071757;28;20050;-74
2022/12/18 05:55:36;;;;;;;62.25;29.85;;;-3271.60;93.70;;;;;;5054946;28;20056;-73
2022/12/18 05:58:03;;;;;;;65.45;32.13;;;-3271.60;93.70;;;;;;5071474;28;20036;-74
2022/12/18 06:00:29;;;;;;;67.30;30.70;;;-3271.60;93.70;;;;;;5055030;28;20443;-73
2022/12/18 06:02:55;;;;;;;60.00;28.27;;;-3271.60;93.50;;;;;;5071659;28;20067;-74
2022/12/18 06:05:20;;;;;;;61.30;28.50;;;-3271.60;93.50;;;;;;5038531;28;20476;-73
2022/12/18 06:07:46;;;;;;;58.40;27.58;;;-3271.60;93.60;;;;;;5071206;28;20496;-74
2022/12/18 06:10:12;;;;;;;60.17;30.08;;;-3271.60;93.50;;;;;;5054764;28;20162;-73
2022/12/18 06:12:37;;;;;;;60.17;28.80;;;-3271.60;93.20;;;;;;5054900;28;20396;-73
2022/12/18 06:15:04;;;;;;;55.63;27.52;;;-3271.60;93.30;;;;;;5038038;28;20374;-74
2022/12/18 06:17:31;;;;;;;63.03;28.00;;;-3271.50;93.20;;;;;;5054709;28;20119;-74
2022/12/18 06:19:56;;;;;;;58.78;28.08;;;-3271.50;93.00;;;;;;5071344;28;20090;-73
2022/12/18 06:22:22;;;;;;;58.88;26.15;;;-3271.50;93.00;;;;;;5037966;28;20033;-74
2022/12/18 06:24:48;;;;;;;57.95;27.52;;;-3271.50;93.00;;;;;;5071271;28;20045;-74
2022/12/18 06:27:14;;;;;;;56.42;27.48;;;-3271.50;93.10;;;;;;5071474;28;20039;-73
2022/12/18 06:29:39;;;;;;;59.50;27.73;;;-3271.40;92.90;;;;;;5071396;28;20048;-73
2022/12/18 06:32:05;;;;;;;59.05;28.85;;;-3271.40;92.90;;;;;;5054754;28;20047;-74
2022/12/18 06:34:31;;;;;;;56.78;28.25;;;-3271.40;92.80;;;;;;5071267;28;20381;-73
2022/12/18 06:36:56;;;;;;;56.47;27.48;;;-3271.30;92.80;;;;;;5054469;28;20099;-74
2022/12/18 06:39:22;;;;;;;55.15;24.50;;;-3271.30;92.70;;;;;;5054817;28;20033;-74
2022/12/18 06:41:48;;;;;;;49.97;25.95;;;-3271.30;92.30;;;;;;5054588;28;20503;-72
2022/12/18 06:44:13;;;;;;;57.40;27.05;;;-3271.20;92.30;;;;;;5038015;28;20044;-74
2022/12/18 06:46:39;;;;;;;51.70;25.42;;;-3271.20;92.30;;;;;;5071096;28;20485;-74
2022/12/18 06:49:05;;;;;;;49.78;26.83;;;-3271.10;92.10;;;;;;5037782;28;20040;-73
2022/12/18 06:51:30;;;;;;;56.65;27.27;;;-3271.10;92.00;;;;;;5070967;28;20037;-73
2022/12/18 06:53:56;;;;;;;57.38;28.75;;;-3271.10;92.10;;;;;;5054818;28;20443;-72
2022/12/18 06:56:22;;;;;;;50.63;25.17;;;-3271.00;92.00;;;;;;5041371;28;20036;-74
2022/12/18 06:58:49;;;;;;;52.78;25.17;;;-3271.00;92.10;;;;;;5074540;28;20036;-75
2022/12/18 07:01:15;;;;;;;50.17;26.25;;;-3271.10;92.10;;;;;;5057773;28;20036;-73
2022/12/18 07:03:41;;;;;;;53.40;25.00;;;-3271.00;92.20;;;;;;5074451;28;20051;-73
2022/12/18 07:06:12;;;;;;;51.08;26.23;;;-3271.10;92.40;;;;;;5041391;28;20036;-75
2022/12/18 07:08:38;;;;;;;50.00;23.17;;;-3271.10;92.30;;;;;;5074682;28;20052;-74
2022/12/18 07:11:04;;;;;;;49.58;24.90;;;-3271.00;92.10;;;;;;5074494;28;20527;-72
2022/12/18 07:13:30;;;;;;;50.13;25.00;;;-3271.10;92.30;;;;;;5074309;28;20043;-74
2022/12/18 07:16:03;;;;;;;46.20;23.00;;;-3271.00;92.30;;;;;;5074188;28;20045;-74
2022/12/18 07:18:29;;;;;;;46.45;24.70;;;-3271.10;92.50;;;;;;5074184;28;20163;-73
2022/12/18 07:20:54;;;;;;;47.70;22.83;;;-3271.10;92.40;;;;;;5074212;28;20080;-73
2022/12/18 07:23:20;;;;;;;49.80;22.10;;;-3271.10;92.20;;;;;;5040693;28;20040;-74
2022/12/18 07:25:46;;;;;;;54.22;23.92;;;-3271.10;92.50;;;;;;5073785;28;20048;-73
2022/12/18 07:28:12;;;;;;;44.67;21.90;;;-3271.10;92.50;;;;;;5056835;28;20037;-74
2022/12/18 07:30:38;;;;;;;40.15;21.25;;;-3271.10;92.50;;;;;;5056986;28;20036;-74
2022/12/18 07:33:04;;;;;;;46.13;22.85;;;-3271.20;92.50;;;;;;5040673;28;20147;-72
2022/12/18 07:35:29;;;;;;;47.13;22.90;;;-3271.10;92.40;;;;;;5057182;28;20045;-74
2022/12/18 07:37:55;;;;;;;48.92;22.90;;;-3271.10;92.40;;;;;;5073862;28;20037;-75
2022/12/18 07:40:21;;;;;;;50.92;23.27;;;-3271.20;92.60;;;;;;5073708;28;20082;-74
2022/12/18 07:42:46;;;;;;;42.75;22.30;;;-3271.20;92.60;;;;;;5073652;28;20072;-73
2022/12/18 07:45:12;;;;;;;47.05;23.27;;;-3271.20;92.30;;;;;;5057323;28;20036;-74
2022/12/18 07:47:38;;;;;;;42.05;22.00;;;-3271.30;92.50;;;;;;5057241;28;20072;-73
2022/12/18 07:50:05;;;;;;;49.30;21.60;;;-3271.30;92.50;;;;;;5056943;28;20546;-74
2022/12/18 07:52:30;;;;;;;45.50;21.90;;;-3271.30;92.40;;;;;;5056878;28;20048;-73
2022/12/18 07:54:56;;;;;;;47.05;22.13;;;-3271.30;92.30;;;;;;5073354;28;20090;-74
2022/12/18 07:57:22;;;;;;;45.55;21.58;;;-3271.30;92.20;;;;;;5073456;28;20040;-74
2022/12/18 07:59:47;;;;;;;37.50;19.95;;;-3271.30;92.30;;;;;;5073630;28;20054;-74
2022/12/18 08:02:13;;;;;;;46.53;22.42;;;-3271.30;92.20;;;;;;5039991;28;20036;-73
2022/12/18 08:04:39;;;;;;;43.25;20.48;;;-3271.30;92.20;;;;;;5073268;28;20036;-74
2022/12/18 08:07:04;;;;;;;44.53;21.30;;;-3271.20;92.20;;;;;;5056351;28;20408;-72
2022/12/18 08:09:30;;;;;;;43.88;22.10;;;-3271.30;92.20;;;;;;5056559;28;20117;-75
2022/12/18 08:11:56;;;;;;;38.55;21.00;;;-3271.30;92.20;;;;;;5056476;28;20047;-74
2022/12/18 08:14:21;;;;;;;40.58;21.15;;;-3271.30;92.20;;;;;;5073141;28;20040;-74
2022/12/18 08:16:47;;;;;;;40.33;20.40;;;-3271.30;92.10;;;;;;5073364;28;20044;-74
2022/12/18 08:19:13;;;;;;;43.20;20.50;;;-3271.40;92.20;;;;;;5073098;28;20389;-73
2022/12/18 08:21:38;;;;;;;38.53;21.55;;;-3271.40;92.10;;;;;;5056315;28;20177;-75
2022/12/18 08:24:04;;;;;;;46.75;21.67;;;-3271.40;92.20;;;;;;5073152;28;20075;-74
2022/12/18 08:26:31;;;;;;;38.83;18.52;;;-3271.40;92.20;;;;;;5073114;28;20471;-75
2022/12/18 08:28:59;;;;;;;41.53;19.58;;;-3271.50;92.30;;;;;;5067816;28;20040;-75
2022/12/18 08:31:26;;;;;;;36.72;20.17;;;-3271.50;92.40;;;;;;5054060;28;20495;-72
2022/12/18 08:33:53;;;;;;;34.78;19.17;;;-3271.60;92.30;;;;;;5053809;28;20145;-75
2022/12/18 08:36:19;;;;;;;42.63;23.35;;;-3271.60;92.20;;;;;;5050205;28;20052;-74
2022/12/18 08:38:45;;;;;;;91.18;48.63;;;-3271.60;92.30;;;;;;5069114;28;20535;-75
2022/12/18 08:41:13;;;;;;;41.97;20.55;;;-3271.60;92.40;;;;;;5054323;28;20040;-74
2022/12/18 08:46:26;;;;;;;42.83;21.77;;;-3271.80;92.40;;;;;;5071017;28;20059;-75
2022/12/18 08:48:54;;;;;;;42.67;22.00;;;-3271.90;92.50;;;;;;5069220;28;20059;-75
2022/12/18 08:51:20;;;;;;;33.72;19.98;;;-3272.00;92.40;;;;;;5070844;28;20063;-72
2022/12/18 08:53:46;;;;;;;38.25;25.45;;;-3272.00;92.40;;;;;;5037882;28;20044;-74
2022/12/18 08:56:12;;;;;;;41.75;22.70;;;-3272.10;92.30;;;;;;5070700;28;20382;-74
2022/12/18 08:58:38;;;;;;;38.33;21.65;;;-3272.10;92.40;;;;;;5069207;28;20552;-74
2022/12/18 09:01:09;;;;;;;42.03;22.23;;;-3272.20;92.30;;;;;;5070477;28;20389;-73
2022/12/18 09:03:35;;;;;;;33.13;19.45;;;-3272.30;92.30;;;;;;5070894;28;20455;-74
2022/12/18 09:06:01;;;;;;;38.00;20.98;;;-3272.30;92.30;;;;;;5070576;28;20044;-73
2022/12/18 09:08:27;;;;;;;34.67;21.23;;;-3272.30;92.30;;;;;;5052437;28;20538;-73
2022/12/18 09:10:53;;;;;;;38.70;22.40;;;-3272.40;92.40;;;;;;5053826;28;20419;-74
2022/12/18 09:13:19;;;;;;;37.00;18.92;;;-3272.50;92.50;;;;;;5053826;28;20127;-74
2022/12/18 09:15:47;;;;;;;42.47;21.85;;;-3272.50;92.40;;;;;;5053638;28;20109;-73
2022/12/18 09:18:14;;;;;;;33.70;19.83;;;-3272.60;92.50;;;;;;5064017;28;20028;-74
2022/12/18 09:20:40;;;;;;;40.03;21.25;;;-3272.60;92.40;;;;;;5070137;28;20037;-72
2022/12/18 09:23:07;;;;;;;35.90;20.08;;;-3272.70;92.30;;;;;;5053695;28;20085;-73
2022/12/18 09:25:35;;;;;;;36.58;21.73;;;-3272.80;92.30;;;;;;5070519;28;20522;-73
2022/12/18 09:28:02;;;;;;;40.17;20.23;;;-3272.80;92.40;;;;;;5068802;28;20083;-73
2022/12/18 09:30:28;;;;;;;41.35;21.10;;;-3273.00;92.40;;;;;;5070297;28;20401;-72
2022/12/18 09:32:54;;;;;;;37.35;20.60;;;-3273.00;92.30;;;;;;5069866;28;20143;-72
2022/12/18 09:35:20;;;;;;;37.45;20.80;;;-3273.10;92.30;;;;;;5065773;28;20083;-73
2022/12/18 09:37:46;;;;;;;34.67;19.55;;;-3273.10;92.30;;;;;;5052493;28;20033;-72
2022/12/18 09:40:17;;;;;;;31.90;17.80;;;-3273.20;92.30;;;;;;5053609;28;20070;-72
2022/12/18 09:42:50;;;;;;;32.30;17.98;;;-3273.30;92.30;;;;;;5070242;28;20429;-72
2022/12/18 09:45:17;;;;;;;32.22;17.83;;;-3273.30;92.20;;;;;;5053329;28;20039;-72
2022/12/18 09:47:47;;;;;;;39.00;18.65;;;-3273.30;92.00;;;;;;5051875;28;20045;-70
2022/12/18 09:50:23;;;;;;;35.97;18.75;;;-3273.50;92.00;;;;;;5068862;28;20036;-71
2022/12/18 09:52:53;;;;;;;30.40;16.60;;;-3273.60;92.10;;;;;;5069204;28;20040;-72
2022/12/18 09:55:28;;;;;;;31.98;18.27;;;-3273.60;92.10;;;;;;5071540;28;20474;-72
2022/12/18 09:58:11;;;;;;;29.33;16.52;;;-3273.70;92.20;;;;;;5068157;28;20404;-73
2022/12/18 10:00:37;;;;;;;29.70;16.83;;;-3273.80;92.00;;;;;;5068975;28;20043;-71
2022/12/18 10:03:10;;;;;;;27.65;15.52;;;-3273.90;91.90;;;;;;5053430;28;20037;-71
2022/12/18 10:06:08;;;;;;;25.40;14.65;;;-3273.90;92.00;;;;;;5071568;28;20083;-71
2022/12/18 10:08:48;;;;;;;27.48;15.75;;;-3274.00;92.10;;;;;;5059683;28;20084;-73
2022/12/18 10:11:41;;;;;;;24.67;16.15;;;-3274.00;91.90;;;;;;5071178;28;20119;-73
2022/12/18 10:14:44;;;;;;;25.00;15.18;;;-3274.00;91.70;;;;;;5070147;28;20551;-71
2022/12/18 10:17:42;;;;;;;22.30;14.52;;;-3274.10;91.70;;;;;;5071126;28;20041;-73
2022/12/18 10:20:31;;;;;;;22.77;14.50;;;-3274.10;91.80;;;;;;5066490;28;20056;-73
2022/12/18 10:23:11;;;;;;;25.52;13.30;;;-3274.20;91.90;;;;;;5071275;28;20110;-73
2022/12/18 10:25:50;;;;;;;23.20;14.00;;;-3274.20;91.90;;;;;;5071322;28;20129;-72
2022/12/18 10:28:18;;;;;;;20.63;12.93;;;-3274.30;91.70;;;;;;5071314;28;20042;-73
2022/12/18 10:30:44;;;;;;;25.63;14.07;;;-3274.30;91.90;;;;;;5074894;28;20047;-75
2022/12/18 10:33:21;;;;;;;19.70;12.65;;;-3274.30;91.80;;;;;;5074954;28;20107;-72
2022/12/18 10:35:53;;;;;;;21.30;13.27;;;-3274.40;91.60;;;;;;5075023;28;20177;-75
2022/12/18 10:38:20;;;;;;;18.52;12.10;;;-3274.40;91.40;;;;;;5058377;28;20044;-76
2022/12/18 10:40:50;;;;;;;21.75;12.30;;;-3274.50;91.10;;;;;;5074910;28;20089;-75
2022/12/18 10:43:24;;;;;;;21.67;12.18;;;-3274.40;90.30;;;;;;5074736;28;20032;-75
2022/12/18 10:45:58;;;;;;;19.92;12.57;;;-3274.50;90.40;;;;;;5058516;28;20499;-75
2022/12/18 10:48:24;;;;;;;20.85;13.05;;;-3274.50;91.00;;;;;;5074997;28;20068;-75
2022/12/18 10:50:51;;;;;;;22.52;12.27;;;-3274.60;90.80;;;;;;5058291;28;20488;-76
2022/12/18 10:53:24;;;;;;;21.70;13.20;;;-3274.60;90.90;;;;;;5058225;28;20037;-76
2022/12/18 10:55:53;;;;;;;19.58;12.30;;;-3274.60;91.20;;;;;;5058108;28;20076;-73
2022/12/18 10:58:38;;;;;;;16.70;11.20;;;-3274.70;91.30;;;;;;5074772;28;20369;-74
2022/12/18 11:01:13;;;;;;;17.58;10.93;;;-3274.70;91.40;;;;;;5057806;28;20037;-73
2022/12/18 11:03:54;;;;;;;16.50;9.95;;;-3274.80;90.80;;;;;;5074492;28;20040;-75
2022/12/18 11:06:24;;;;;;;16.05;10.20;;;-3274.80;91.20;;;;;;5057595;28;20048;-76
2022/12/18 11:09:25;;;;;;;16.48;9.90;;;-3274.90;90.80;;;;;;5074342;28;20400;-74
2022/12/18 11:11:53;;;;;;;16.52;10.57;;;-3274.90;90.20;;;;;;5049725;28;20060;-74
2022/12/18 11:14:32;;;;;;;14.60;9.40;;;-3275.00;89.80;;;;;;5057605;28;20051;-72
2022/12/18 11:17:00;;;;;;;14.40;9.70;;;-3275.00;90.30;;;;;;5074229;28;20044;-75
2022/12/18 11:19:35;;;;;;;15.18;10.40;;;-3275.00;90.30;;;;;;5074265;28;20050;-74
2022/12/18 11:22:03;;;;;;;15.48;9.35;;;-3275.00;90.30;;;;;;5074117;28;20040;-74
2022/12/18 11:24:36;;;;;;;16.35;9.68;;;-3275.00;89.90;;;;;;5057710;28;20518;-74
2022/12/18 11:27:04;;;;;;;16.40;10.40;;;-3275.10;90.30;;;;;;5057321;28;20040;-73
2022/12/18 11:29:38;;;;;;;18.40;10.55;;;-3275.10;90.30;;;;;;5074333;28;20513;-74
2022/12/18 11:32:38;;;;;;;16.33;10.10;;;-3275.10;90.80;;;;;;5074007;28;20044;-73
2022/12/18 11:35:32;;;;;;;16.40;10.20;;;-3275.20;90.70;;;;;;5057219;28;20052;-74
2022/12/18 11:38:02;;;;;;;17.13;10.32;;;-3275.20;90.10;;;;;;5073899;28;20055;-73
2022/12/18 11:40:37;;;;;;;16.02;9.77;;;-3275.20;89.80;;;;;;5073701;28;20048;-76
2022/12/18 11:43:17;;;;;;;18.55;10.52;;;-3275.20;89.40;;;;;;5073948;28;20090;-75
2022/12/18 11:46:03;;;;;;;15.52;10.45;;;-3275.20;89.60;;;;;;5057136;28;20086;-74
2022/12/18 11:48:36;;;;;;;16.13;11.55;;;-3275.20;89.70;;;;;;5074020;28;20408;-72
2022/12/18 11:51:05;;;;;;;17.30;11.18;;;-3275.20;89.80;;;;;;5073540;28;20044;-77
2022/12/18 11:53:31;;;;;;;16.83;10.60;;;-3275.20;89.70;;;;;;5073625;28;20101;-78
2022/12/18 11:56:04;;;;;;;17.55;11.02;;;-3275.20;89.40;;;;;;5056917;28;20048;-76
2022/12/18 11:58:42;;;;;;;19.40;12.10;;;-3275.30;90.60;;;;;;5073642;28;20056;-74
2022/12/18 12:01:45;;;;;;;17.92;11.90;;;-3275.30;90.50;;;;;;5073390;28;20048;-77
2022/12/18 12:04:19;;;;;;;18.23;11.05;;;-3275.30;90.50;;;;;;5056719;28;20090;-77
2022/12/18 12:06:51;;;;;;;15.23;9.52;;;-3275.30;90.30;;;;;;5056484;28;20043;-76
2022/12/18 12:09:38;;;;;;;17.55;9.85;;;-3275.30;90.00;;;;;;5073331;28;20047;-77
2022/12/18 12:12:22;;;;;;;19.23;11.00;;;-3275.30;90.70;;;;;;5073177;28;20457;-76
2022/12/18 12:15:28;;;;;;;18.75;11.07;;;-3275.30;90.60;;;;;;5073151;28;20041;-77
2022/12/18 12:18:18;;;;;;;16.55;10.23;;;-3275.40;90.30;;;;;;5073036;28;20488;-76
2022/12/18 12:21:09;;;;;;;18.45;10.52;;;-3275.30;89.80;;;;;;5073031;28;20045;-76